sensor_id;sensor_type;location;lat;lon;timestamp;pressure;altitude;pressure_sealevel;temperature;humidity
44765;BME280;30484;52.382;5.260;2022-09-23T00:02:15;101894.03;;;16.39;100.00
44765;BME280;30484;52.382;5.260;2022-09-23T00:04:44;101898.22;;;16.45;100.00
44765;BME280;30484;52.382;5.260;2022-09-23T00:07:13;101893.94;;;16.41;100.00
44765;BME280;30484;52.382;5.260;2022-09-23T00:09:44;101893.25;;;16.21;100.00
44765;BME280;30484;52.382;5.260;2022-09-23T00:12:14;101889.88;;;16.33;100.00
44765;BME280;30484;52.382;5.260;2022-09-23T00:14:44;101881.75;;;16.17;100.00
44765;BME280;30484;52.382;5.260;2022-09-23T00:17:13;101889.34;;;16.11;100.00
44765;BME280;30484;52.382;5.260;2022-09-23T00:19:43;101887.63;;;16.10;100.00
44765;BME280;30484;52.382;5.260;2022-09-23T00:22:15;101875.25;;;16.21;100.00
44765;BME280;30484;52.382;5.260;2022-09-23T00:24:44;101886.38;;;16.31;100.00
44765;BME280;30484;52.382;5.260;2022-09-23T00:27:14;101881.72;;;16.19;100.00
44765;BME280;30484;52.382;5.260;2022-09-23T00:29:43;101889.25;;;16.28;100.00
44765;BME280;30484;52.382;5.260;2022-09-23T00:32:12;101881.53;;;16.22;100.00
44765;BME280;30484;52.382;5.260;2022-09-23T00:34:44;101870.22;;;16.15;100.00
44765;BME280;30484;52.382;5.260;2022-09-23T00:37:14;101869.59;;;16.10;100.00
44765;BME280;30484;52.382;5.260;2022-09-23T00:39:43;101872.84;;;16.01;100.00
44765;BME280;30484;52.382;5.260;2022-09-23T00:42:19;101868.03;;;16.22;100.00
44765;BME280;30484;52.382;5.260;2022-09-23T00:44:51;101866.91;;;16.10;100.00
44765;BME280;30484;52.382;5.260;2022-09-23T00:47:27;101857.25;;;16.06;100.00
44765;BME280;30484;52.382;5.260;2022-09-23T00:50:05;101859.53;;;15.98;100.00
44765;BME280;30484;52.382;5.260;2022-09-23T00:52:45;101853.78;;;16.04;100.00
44765;BME280;30484;52.382;5.260;2022-09-23T00:55:20;101852.75;;;16.07;100.00
44765;BME280;30484;52.382;5.260;2022-09-23T00:57:57;101856.56;;;16.02;100.00
44765;BME280;30484;52.382;5.260;2022-09-23T01:00:30;101852.75;;;16.07;100.00
44765;BME280;30484;52.382;5.260;2022-09-23T01:03:01;101851.19;;;16.02;100.00
44765;BME280;30484;52.382;5.260;2022-09-23T01:05:32;101847.00;;;15.97;100.00
44765;BME280;30484;52.382;5.260;2022-09-23T01:08:02;101849.63;;;15.98;100.00
44765;BME280;30484;52.382;5.260;2022-09-23T01:10:39;101852.50;;;15.95;100.00
44765;BME280;30484;52.382;5.260;2022-09-23T01:13:23;101849.63;;;15.82;100.00
44765;BME280;30484;52.382;5.260;2022-09-23T01:16:04;101850.66;;;15.80;100.00
44765;BME280;30484;52.382;5.260;2022-09-23T01:18:43;101855.66;;;15.70;100.00
44765;BME280;30484;52.382;5.260;2022-09-23T01:21:36;101838.63;;;15.69;100.00
44765;BME280;30484;52.382;5.260;2022-09-23T01:24:52;101840.69;;;15.64;100.00
44765;BME280;30484;52.382;5.260;2022-09-23T01:27:46;101841.63;;;15.81;100.00
44765;BME280;30484;52.382;5.260;2022-09-23T01:30:42;101831.94;;;15.61;100.00
44765;BME280;30484;52.382;5.260;2022-09-23T01:33:19;101839.13;;;15.60;100.00
44765;BME280;30484;52.382;5.260;2022-09-23T01:36:08;101827.13;;;15.50;100.00
44765;BME280;30484;52.382;5.260;2022-09-23T01:38:44;101833.28;;;15.36;100.00
44765;BME280;30484;52.382;5.260;2022-09-23T01:44:20;101830.38;;;15.23;100.00
44765;BME280;30484;52.382;5.260;2022-09-23T01:46:55;101829.09;;;15.30;100.00
44765;BME280;30484;52.382;5.260;2022-09-23T01:49:34;101824.13;;;15.23;100.00
44765;BME280;30484;52.382;5.260;2022-09-23T01:52:10;101827.28;;;15.31;100.00
44765;BME280;30484;52.382;5.260;2022-09-23T01:54:50;101830.09;;;15.12;100.00
44765;BME280;30484;52.382;5.260;2022-09-23T01:57:29;101818.22;;;15.16;100.00
44765;BME280;30484;52.382;5.260;2022-09-23T02:00:10;101817.28;;;15.17;100.00
44765;BME280;30484;52.382;5.260;2022-09-23T02:02:47;101815.97;;;15.24;100.00
44765;BME280;30484;52.382;5.260;2022-09-23T02:05:24;101817.09;;;15.20;100.00
44765;BME280;30484;52.382;5.260;2022-09-23T02:07:59;101821.16;;;15.11;100.00
44765;BME280;30484;52.382;5.260;2022-09-23T02:10:35;101816.72;;;14.77;100.00
44765;BME280;30484;52.382;5.260;2022-09-23T02:13:19;101816.97;;;15.06;100.00
44765;BME280;30484;52.382;5.260;2022-09-23T02:15:55;101808.13;;;15.04;100.00
44765;BME280;30484;52.382;5.260;2022-09-23T02:18:34;101807.97;;;15.07;100.00
44765;BME280;30484;52.382;5.260;2022-09-23T02:21:09;101798.78;;;15.11;100.00
44765;BME280;30484;52.382;5.260;2022-09-23T02:23:44;101800.47;;;15.12;100.00
44765;BME280;30484;52.382;5.260;2022-09-23T02:26:20;101787.97;;;14.77;100.00
44765;BME280;30484;52.382;5.260;2022-09-23T02:29:04;101794.81;;;15.00;100.00
44765;BME280;30484;52.382;5.260;2022-09-23T02:31:55;101790.16;;;15.04;100.00
44765;BME280;30484;52.382;5.260;2022-09-23T02:34:38;101783.44;;;14.95;100.00
44765;BME280;30484;52.382;5.260;2022-09-23T02:37:21;101789.59;;;14.97;100.00
44765;BME280;30484;52.382;5.260;2022-09-23T02:40:00;101785.63;;;14.71;100.00
44765;BME280;30484;52.382;5.260;2022-09-23T02:42:36;101774.56;;;14.93;100.00
44765;BME280;30484;52.382;5.260;2022-09-23T02:45:08;101776.66;;;14.88;100.00
44765;BME280;30484;52.382;5.260;2022-09-23T02:47:39;101774.75;;;14.90;100.00
44765;BME280;30484;52.382;5.260;2022-09-23T02:50:12;101767.97;;;14.99;100.00
44765;BME280;30484;52.382;5.260;2022-09-23T02:52:43;101767.91;;;15.00;100.00
44765;BME280;30484;52.382;5.260;2022-09-23T02:55:16;101768.06;;;14.97;100.00
44765;BME280;30484;52.382;5.260;2022-09-23T02:57:48;101759.31;;;14.94;100.00
44765;BME280;30484;52.382;5.260;2022-09-23T03:00:19;101767.38;;;14.94;100.00
44765;BME280;30484;52.382;5.260;2022-09-23T03:03:04;101765.47;;;14.96;100.00
44765;BME280;30484;52.382;5.260;2022-09-23T03:05:48;101766.50;;;14.93;100.00
44765;BME280;30484;52.382;5.260;2022-09-23T03:08:33;101753.38;;;14.87;100.00
44765;BME280;30484;52.382;5.260;2022-09-23T03:11:06;101764.16;;;14.87;100.00
44765;BME280;30484;52.382;5.260;2022-09-23T03:13:49;101767.00;;;14.84;100.00
44765;BME280;30484;52.382;5.260;2022-09-23T03:16:30;101749.13;;;14.83;100.00
44765;BME280;30484;52.382;5.260;2022-09-23T03:19:16;101758.84;;;14.86;100.00
44765;BME280;30484;52.382;5.260;2022-09-23T03:21:57;101749.47;;;14.77;100.00
44765;BME280;30484;52.382;5.260;2022-09-23T03:24:31;101750.22;;;14.79;100.00
44765;BME280;30484;52.382;5.260;2022-09-23T03:27:06;101751.97;;;14.80;100.00
44765;BME280;30484;52.382;5.260;2022-09-23T03:29:46;101752.91;;;14.79;100.00
44765;BME280;30484;52.382;5.260;2022-09-23T03:32:18;101747.72;;;14.76;100.00
44765;BME280;30484;52.382;5.260;2022-09-23T03:34:52;101748.50;;;14.78;100.00
44765;BME280;30484;52.382;5.260;2022-09-23T03:37:31;101751.59;;;14.70;100.00
44765;BME280;30484;52.382;5.260;2022-09-23T03:40:06;101743.13;;;14.78;100.00
44765;BME280;30484;52.382;5.260;2022-09-23T03:42:37;101739.09;;;14.69;100.00
44765;BME280;30484;52.382;5.260;2022-09-23T03:45:11;101744.84;;;14.79;100.00
44765;BME280;30484;52.382;5.260;2022-09-23T03:47:45;101733.41;;;14.75;100.00
44765;BME280;30484;52.382;5.260;2022-09-23T03:50:15;101728.03;;;14.75;100.00
44765;BME280;30484;52.382;5.260;2022-09-23T03:52:46;101724.88;;;14.67;100.00
44765;BME280;30484;52.382;5.260;2022-09-23T03:55:17;101726.50;;;14.52;100.00
44765;BME280;30484;52.382;5.260;2022-09-23T03:57:47;101719.50;;;14.67;100.00
44765;BME280;30484;52.382;5.260;2022-09-23T04:00:19;101720.19;;;14.71;100.00
44765;BME280;30484;52.382;5.260;2022-09-23T04:02:51;101716.09;;;14.63;100.00
44765;BME280;30484;52.382;5.260;2022-09-23T04:05:19;101714.56;;;14.58;100.00
44765;BME280;30484;52.382;5.260;2022-09-23T04:07:51;101712.06;;;14.72;100.00
44765;BME280;30484;52.382;5.260;2022-09-23T04:10:21;101715.69;;;14.71;100.00
44765;BME280;30484;52.382;5.260;2022-09-23T04:12:52;101718.50;;;14.86;100.00
44765;BME280;30484;52.382;5.260;2022-09-23T04:15:25;101718.47;;;14.70;100.00
44765;BME280;30484;52.382;5.260;2022-09-23T04:18:00;101707.03;;;14.82;100.00
44765;BME280;30484;52.382;5.260;2022-09-23T04:20:31;101713.56;;;14.94;100.00
44765;BME280;30484;52.382;5.260;2022-09-23T04:23:17;101713.09;;;14.70;100.00
44765;BME280;30484;52.382;5.260;2022-09-23T04:25:49;101706.28;;;14.62;100.00
44765;BME280;30484;52.382;5.260;2022-09-23T04:28:20;101708.41;;;14.89;100.00
44765;BME280;30484;52.382;5.260;2022-09-23T04:30:49;101711.66;;;14.96;100.00
44765;BME280;30484;52.382;5.260;2022-09-23T04:33:18;101705.91;;;15.02;100.00
44765;BME280;30484;52.382;5.260;2022-09-23T04:35:50;101705.22;;;14.98;100.00
44765;BME280;30484;52.382;5.260;2022-09-23T04:38:26;101703.22;;;14.86;100.00
44765;BME280;30484;52.382;5.260;2022-09-23T04:40:56;101701.88;;;15.11;100.00
44765;BME280;30484;52.382;5.260;2022-09-23T04:43:27;101708.03;;;15.13;100.00
44765;BME280;30484;52.382;5.260;2022-09-23T04:45:59;101700.13;;;14.94;100.00
44765;BME280;30484;52.382;5.260;2022-09-23T04:48:29;101697.66;;;14.89;100.00
44765;BME280;30484;52.382;5.260;2022-09-23T04:51:02;101701.16;;;15.07;100.00
44765;BME280;30484;52.382;5.260;2022-09-23T04:53:34;101697.72;;;15.05;100.00
44765;BME280;30484;52.382;5.260;2022-09-23T04:56:08;101698.06;;;15.15;100.00
44765;BME280;30484;52.382;5.260;2022-09-23T04:58:40;101695.78;;;15.07;100.00
44765;BME280;30484;52.382;5.260;2022-09-23T05:01:13;101697.59;;;14.91;100.00
44765;BME280;30484;52.382;5.260;2022-09-23T05:03:44;101700.13;;;14.94;100.00
44765;BME280;30484;52.382;5.260;2022-09-23T05:06:16;101701.44;;;15.02;100.00
44765;BME280;30484;52.382;5.260;2022-09-23T05:08:51;101704.41;;;15.14;100.00
44765;BME280;30484;52.382;5.260;2022-09-23T05:11:21;101706.56;;;15.23;100.00
44765;BME280;30484;52.382;5.260;2022-09-23T05:13:53;101701.88;;;15.11;100.00
44765;BME280;30484;52.382;5.260;2022-09-23T05:16:24;101702.41;;;15.33;100.00
44765;BME280;30484;52.382;5.260;2022-09-23T05:18:56;101707.25;;;15.59;100.00
44765;BME280;30484;52.382;5.260;2022-09-23T05:21:45;101695.78;;;15.55;100.00
44765;BME280;30484;52.382;5.260;2022-09-23T05:24:20;101702.56;;;15.62;100.00
44765;BME280;30484;52.382;5.260;2022-09-23T05:26:51;101707.56;;;15.68;100.00
44765;BME280;30484;52.382;5.260;2022-09-23T05:29:22;101705.06;;;15.65;100.00
44765;BME280;30484;52.382;5.260;2022-09-23T05:31:53;101711.56;;;15.77;100.00
44765;BME280;30484;52.382;5.260;2022-09-23T05:34:26;101708.53;;;15.67;100.00
44765;BME280;30484;52.382;5.260;2022-09-23T05:36:55;101702.19;;;15.68;100.00
44765;BME280;30484;52.382;5.260;2022-09-23T05:39:26;101702.56;;;15.62;100.00
44765;BME280;30484;52.382;5.260;2022-09-23T05:41:56;101708.91;;;15.61;100.00
44765;BME280;30484;52.382;5.260;2022-09-23T05:44:27;101702.22;;;15.52;100.00
44765;BME280;30484;52.382;5.260;2022-09-23T05:47:06;101703.44;;;15.47;100.00
44765;BME280;30484;52.382;5.260;2022-09-23T05:50:03;101710.78;;;15.91;100.00
44765;BME280;30484;52.382;5.260;2022-09-23T05:52:35;101709.28;;;16.01;100.00
44765;BME280;30484;52.382;5.260;2022-09-23T05:55:08;101707.06;;;15.94;100.00
44765;BME280;30484;52.382;5.260;2022-09-23T05:57:42;101700.25;;;16.02;100.00
44765;BME280;30484;52.382;5.260;2022-09-23T06:00:13;101707.59;;;16.15;100.00
44765;BME280;30484;52.382;5.260;2022-09-23T06:02:43;101709.22;;;15.87;100.00
44765;BME280;30484;52.382;5.260;2022-09-23T06:05:17;101708.13;;;16.05;100.00
44765;BME280;30484;52.382;5.260;2022-09-23T06:07:52;101706.06;;;16.25;100.00
44765;BME280;30484;52.382;5.260;2022-09-23T06:10:24;101703.59;;;16.06;100.00
44765;BME280;30484;52.382;5.260;2022-09-23T06:12:54;101704.91;;;16.15;100.00
44765;BME280;30484;52.382;5.260;2022-09-23T06:15:24;101703.88;;;16.32;100.00
44765;BME280;30484;52.382;5.260;2022-09-23T06:17:54;101699.59;;;16.13;100.00
44765;BME280;30484;52.382;5.260;2022-09-23T06:20:24;101695.50;;;16.36;100.00
44765;BME280;30484;52.382;5.260;2022-09-23T06:22:54;101700.53;;;16.57;100.00
44765;BME280;30484;52.382;5.260;2022-09-23T06:25:30;101695.59;;;16.35;100.00
44765;BME280;30484;52.382;5.260;2022-09-23T06:28:01;101694.72;;;16.34;100.00
44765;BME280;30484;52.382;5.260;2022-09-23T06:30:33;101698.59;;;16.45;100.00
44765;BME280;30484;52.382;5.260;2022-09-23T06:33:03;101700.00;;;16.21;100.00
44765;BME280;30484;52.382;5.260;2022-09-23T06:35:33;101702.06;;;16.47;100.00
44765;BME280;30484;52.382;5.260;2022-09-23T06:38:04;101700.88;;;16.22;100.00
44765;BME280;30484;52.382;5.260;2022-09-23T06:40:35;101697.47;;;16.63;100.00
44765;BME280;30484;52.382;5.260;2022-09-23T06:43:04;101697.84;;;16.57;100.00
44765;BME280;30484;52.382;5.260;2022-09-23T06:45:36;101700.06;;;16.50;100.00
44765;BME280;30484;52.382;5.260;2022-09-23T06:48:05;101701.13;;;16.77;100.00
44765;BME280;30484;52.382;5.260;2022-09-23T06:50:36;101699.88;;;16.82;100.00
44765;BME280;30484;52.382;5.260;2022-09-23T06:53:05;101699.88;;;16.82;100.00
44765;BME280;30484;52.382;5.260;2022-09-23T06:55:35;101700.84;;;16.96;100.00
44765;BME280;30484;52.382;5.260;2022-09-23T06:58:04;101693.91;;;16.91;100.00
44765;BME280;30484;52.382;5.260;2022-09-23T07:00:33;101692.00;;;17.35;100.00
44765;BME280;30484;52.382;5.260;2022-09-23T07:03:05;101692.63;;;17.53;100.00
44765;BME280;30484;52.382;5.260;2022-09-23T07:05:34;101699.28;;;17.20;100.00
44765;BME280;30484;52.382;5.260;2022-09-23T07:08:08;101704.03;;;17.44;100.00
44765;BME280;30484;52.382;5.260;2022-09-23T07:10:39;101700.28;;;17.47;100.00
44765;BME280;30484;52.382;5.260;2022-09-23T07:13:09;101693.47;;;17.27;100.00
44765;BME280;30484;52.382;5.260;2022-09-23T07:15:47;101700.44;;;17.58;100.00
44765;BME280;30484;52.382;5.260;2022-09-23T07:18:17;101698.84;;;17.68;100.00
44765;BME280;30484;52.382;5.260;2022-09-23T07:20:47;101694.72;;;17.63;100.00
44765;BME280;30484;52.382;5.260;2022-09-23T07:23:15;101703.13;;;17.31;100.00
44765;BME280;30484;52.382;5.260;2022-09-23T07:25:50;101702.31;;;17.70;100.00
44765;BME280;30484;52.382;5.260;2022-09-23T07:28:19;101697.53;;;17.61;100.00
44765;BME280;30484;52.382;5.260;2022-09-23T07:30:48;101696.88;;;17.16;100.00
44765;BME280;30484;52.382;5.260;2022-09-23T07:33:26;101694.88;;;17.74;100.00
44765;BME280;30484;52.382;5.260;2022-09-23T07:36:04;101691.88;;;18.19;100.00
44765;BME280;30484;52.382;5.260;2022-09-23T07:38:35;101695.47;;;18.32;100.00
44765;BME280;30484;52.382;5.260;2022-09-23T07:41:16;101698.50;;;18.40;100.00
44765;BME280;30484;52.382;5.260;2022-09-23T07:43:46;101700.31;;;18.27;100.00
44765;BME280;30484;52.382;5.260;2022-09-23T07:46:17;101698.84;;;18.61;100.00
44765;BME280;30484;52.382;5.260;2022-09-23T07:48:47;101694.81;;;18.80;100.00
44765;BME280;30484;52.382;5.260;2022-09-23T07:51:21;101704.03;;;18.39;100.00
44765;BME280;30484;52.382;5.260;2022-09-23T07:53:53;101697.09;;;18.60;100.00
44765;BME280;30484;52.382;5.260;2022-09-23T07:56:28;101694.03;;;19.04;100.00
44765;BME280;30484;52.382;5.260;2022-09-23T07:59:00;101688.97;;;18.48;100.00
44765;BME280;30484;52.382;5.260;2022-09-23T08:01:32;101688.41;;;19.07;100.00
44765;BME280;30484;52.382;5.260;2022-09-23T08:04:04;101690.56;;;19.14;100.00
44765;BME280;30484;52.382;5.260;2022-09-23T08:06:50;101687.56;;;19.30;100.00
44765;BME280;30484;52.382;5.260;2022-09-23T08:09:25;101684.00;;;19.30;100.00
44765;BME280;30484;52.382;5.260;2022-09-23T08:11:57;101686.50;;;19.33;100.00
44765;BME280;30484;52.382;5.260;2022-09-23T08:14:27;101689.50;;;19.04;100.00
44765;BME280;30484;52.382;5.260;2022-09-23T08:16:56;101687.56;;;19.30;100.00
44765;BME280;30484;52.382;5.260;2022-09-23T08:19:25;101690.78;;;19.97;100.00
44765;BME280;30484;52.382;5.260;2022-09-23T08:21:54;101694.84;;;19.91;100.00
44765;BME280;30484;52.382;5.260;2022-09-23T08:24:24;101690.19;;;20.05;100.00
44765;BME280;30484;52.382;5.260;2022-09-23T08:26:55;101696.06;;;20.34;100.00
44765;BME280;30484;52.382;5.260;2022-09-23T08:29:26;101702.38;;;20.57;100.00
44765;BME280;30484;52.382;5.260;2022-09-23T08:32:00;101697.72;;;20.71;100.00
44765;BME280;30484;52.382;5.260;2022-09-23T08:34:29;101696.16;;;20.79;100.00
44765;BME280;30484;52.382;5.260;2022-09-23T08:36:58;101695.34;;;21.34;100.00
44765;BME280;30484;52.382;5.260;2022-09-23T08:39:28;101691.19;;;21.18;100.00
44765;BME280;30484;52.382;5.260;2022-09-23T08:42:16;101690.44;;;21.16;100.00
44765;BME280;30484;52.382;5.260;2022-09-23T08:44:50;101693.03;;;21.18;100.00
44765;BME280;30484;52.382;5.260;2022-09-23T08:47:24;101686.00;;;21.70;100.00
44765;BME280;30484;52.382;5.260;2022-09-23T08:50:02;101686.16;;;21.90;100.00
44765;BME280;30484;52.382;5.260;2022-09-23T08:52:38;101684.47;;;21.34;100.00
44765;BME280;30484;52.382;5.260;2022-09-23T08:55:13;101686.97;;;21.26;100.00
44765;BME280;30484;52.382;5.260;2022-09-23T08:58:00;101678.03;;;21.79;100.00
44765;BME280;30484;52.382;5.260;2022-09-23T09:01:01;101678.59;;;21.72;100.00
44765;BME280;30484;52.382;5.260;2022-09-23T09:03:39;101685.69;;;21.41;100.00
44765;BME280;30484;52.382;5.260;2022-09-23T09:06:16;101681.00;;;22.08;100.00
44765;BME280;30484;52.382;5.260;2022-09-23T09:08:53;101679.69;;;21.70;100.00
44765;BME280;30484;52.382;5.260;2022-09-23T09:11:32;101683.56;;;21.88;100.00
44765;BME280;30484;52.382;5.260;2022-09-23T09:14:17;101680.53;;;21.27;100.00
44765;BME280;30484;52.382;5.260;2022-09-23T09:16:57;101674.34;;;21.36;100.00
44765;BME280;30484;52.382;5.260;2022-09-23T09:20:06;101674.53;;;21.67;100.00
44765;BME280;30484;52.382;5.260;2022-09-23T09:22:53;101671.56;;;21.91;100.00
44765;BME280;30484;52.382;5.260;2022-09-23T09:25:41;101677.63;;;21.51;100.00
44765;BME280;30484;52.382;5.260;2022-09-23T09:28:17;101677.91;;;21.80;100.00
44765;BME280;30484;52.382;5.260;2022-09-23T09:30:52;101669.44;;;21.74;100.00
44765;BME280;30484;52.382;5.260;2022-09-23T09:33:29;101667.88;;;21.92;100.00
44765;BME280;30484;52.382;5.260;2022-09-23T09:36:29;101668.78;;;22.02;100.00
44765;BME280;30484;52.382;5.260;2022-09-23T09:39:01;101669.25;;;21.86;100.00
44765;BME280;30484;52.382;5.260;2022-09-23T09:41:33;101667.34;;;21.66;100.00
44765;BME280;30484;52.382;5.260;2022-09-23T09:44:18;101668.53;;;21.41;100.00
44765;BME280;30484;52.382;5.260;2022-09-23T09:47:08;101675.50;;;21.66;100.00
44765;BME280;30484;52.382;5.260;2022-09-23T09:49:47;101675.00;;;21.93;100.00
44765;BME280;30484;52.382;5.260;2022-09-23T09:52:24;101668.91;;;21.80;100.00
44765;BME280;30484;52.382;5.260;2022-09-23T09:55:21;101670.84;;;21.57;100.00
44765;BME280;30484;52.382;5.260;2022-09-23T09:57:54;101668.13;;;21.57;100.00
44765;BME280;30484;52.382;5.260;2022-09-23T10:00:38;101677.03;;;21.36;100.00
44765;BME280;30484;52.382;5.260;2022-09-23T10:03:33;101671.13;;;21.42;100.00
44765;BME280;30484;52.382;5.260;2022-09-23T10:06:21;101658.97;;;21.58;100.00
44765;BME280;30484;52.382;5.260;2022-09-23T10:09:12;101651.34;;;21.84;100.00
44765;BME280;30484;52.382;5.260;2022-09-23T10:12:07;101651.03;;;21.66;100.00
44765;BME280;30484;52.382;5.260;2022-09-23T10:14:38;101649.31;;;21.65;100.00
44765;BME280;30484;52.382;5.260;2022-09-23T10:17:13;101641.84;;;22.20;100.00
44765;BME280;30484;52.382;5.260;2022-09-23T10:19:48;101645.38;;;22.11;100.00
44765;BME280;30484;52.382;5.260;2022-09-23T10:22:23;101650.41;;;22.16;100.00
44765;BME280;30484;52.382;5.260;2022-09-23T10:24:54;101643.28;;;22.24;100.00
44765;BME280;30484;52.382;5.260;2022-09-23T10:27:30;101639.81;;;22.65;100.00
44765;BME280;30484;52.382;5.260;2022-09-23T10:30:04;101633.16;;;22.88;100.00
44765;BME280;30484;52.382;5.260;2022-09-23T10:32:36;101642.25;;;22.37;100.00
44765;BME280;30484;52.382;5.260;2022-09-23T10:35:17;101630.56;;;22.46;100.00
44765;BME280;30484;52.382;5.260;2022-09-23T10:37:50;101632.03;;;23.01;100.00
44765;BME280;30484;52.382;5.260;2022-09-23T10:40:26;101636.50;;;22.61;100.00
44765;BME280;30484;52.382;5.260;2022-09-23T10:43:25;101632.44;;;22.86;100.00
44765;BME280;30484;52.382;5.260;2022-09-23T10:46:19;101639.81;;;22.34;100.00
44765;BME280;30484;52.382;5.260;2022-09-23T10:49:52;101642.34;;;22.56;100.00
44765;BME280;30484;52.382;5.260;2022-09-23T10:52:47;101643.22;;;22.98;100.00
44765;BME280;30484;52.382;5.260;2022-09-23T10:59:08;101643.94;;;23.00;100.00
44765;BME280;30484;52.382;5.260;2022-09-23T11:01:48;101651.97;;;22.61;100.00
44765;BME280;30484;52.382;5.260;2022-09-23T11:04:57;101645.03;;;23.28;100.00
44765;BME280;30484;52.382;5.260;2022-09-23T11:07:45;101639.34;;;22.90;100.00
44765;BME280;30484;52.382;5.260;2022-09-23T11:10:53;101629.31;;;23.01;100.00
44765;BME280;30484;52.382;5.260;2022-09-23T11:13:42;101641.75;;;23.24;100.00
44765;BME280;30484;52.382;5.260;2022-09-23T11:16:37;101644.91;;;23.30;100.00
44765;BME280;30484;52.382;5.260;2022-09-23T11:19:52;101637.72;;;23.38;100.00
44765;BME280;30484;52.382;5.260;2022-09-23T11:22:55;101635.75;;;23.00;100.00
44765;BME280;30484;52.382;5.260;2022-09-23T11:25:43;101624.94;;;23.19;100.00
44765;BME280;30484;52.382;5.260;2022-09-23T11:28:37;101626.50;;;23.12;100.00
44765;BME280;30484;52.382;5.260;2022-09-23T11:31:29;101626.97;;;23.47;100.00
44765;BME280;30484;52.382;5.260;2022-09-23T11:34:25;101628.69;;;23.38;100.00
44765;BME280;30484;52.382;5.260;2022-09-23T11:37:07;101626.06;;;23.17;100.00
44765;BME280;30484;52.382;5.260;2022-09-23T11:39:48;101626.28;;;23.44;100.00
44765;BME280;30484;52.382;5.260;2022-09-23T11:42:25;101621.81;;;22.93;100.00
44765;BME280;30484;52.382;5.260;2022-09-23T11:45:02;101613.63;;;23.34;100.00
44765;BME280;30484;52.382;5.260;2022-09-23T11:47:41;101614.88;;;23.20;100.00
44765;BME280;30484;52.382;5.260;2022-09-23T11:50:21;101610.25;;;23.10;100.00
44765;BME280;30484;52.382;5.260;2022-09-23T11:53:06;101609.63;;;23.57;100.00
44765;BME280;30484;52.382;5.260;2022-09-23T11:55:46;101610.91;;;23.53;100.00
44765;BME280;30484;52.382;5.260;2022-09-23T11:58:30;101620.09;;;23.72;100.00
44765;BME280;30484;52.382;5.260;2022-09-23T12:01:09;101609.88;;;23.54;100.00
44765;BME280;30484;52.382;5.260;2022-09-23T12:03:49;101597.09;;;24.04;100.00
44765;BME280;30484;52.382;5.260;2022-09-23T12:06:27;101605.25;;;23.84;100.00
44765;BME280;30484;52.382;5.260;2022-09-23T12:09:02;101603.13;;;23.68;100.00
44765;BME280;30484;52.382;5.260;2022-09-23T12:11:48;101595.09;;;23.86;100.00
44765;BME280;30484;52.382;5.260;2022-09-23T12:14:29;101592.50;;;23.85;100.00
44765;BME280;30484;52.382;5.260;2022-09-23T12:20:45;101588.41;;;24.93;100.00
44765;BME280;30484;52.382;5.260;2022-09-23T12:23:40;101586.19;;;24.79;100.00
44765;BME280;30484;52.382;5.260;2022-09-23T12:26:15;101582.31;;;23.97;100.00
44765;BME280;30484;52.382;5.260;2022-09-23T12:28:51;101573.09;;;24.45;100.00
44765;BME280;30484;52.382;5.260;2022-09-23T12:31:24;101584.88;;;23.78;100.00
44765;BME280;30484;52.382;5.260;2022-09-23T12:33:59;101577.50;;;24.56;100.00
44765;BME280;30484;52.382;5.260;2022-09-23T12:36:31;101572.34;;;24.53;100.00
44765;BME280;30484;52.382;5.260;2022-09-23T12:39:06;101577.34;;;24.57;100.00
44765;BME280;30484;52.382;5.260;2022-09-23T12:41:45;101578.72;;;24.06;100.00
44765;BME280;30484;52.382;5.260;2022-09-23T12:44:38;101576.56;;;24.47;100.00
44765;BME280;30484;52.382;5.260;2022-09-23T12:47:36;101571.97;;;24.38;100.00
44765;BME280;30484;52.382;5.260;2022-09-23T12:50:50;101573.72;;;24.29;100.00
44765;BME280;30484;52.382;5.260;2022-09-23T12:53:57;101550.75;;;24.32;100.00
44765;BME280;30484;52.382;5.260;2022-09-23T12:59:58;101565.69;;;24.55;100.00
44765;BME280;30484;52.382;5.260;2022-09-23T13:02:32;101563.31;;;24.80;100.00
44765;BME280;30484;52.382;5.260;2022-09-23T13:05:19;101562.66;;;23.64;100.00
44765;BME280;30484;52.382;5.260;2022-09-23T13:08:10;101568.53;;;24.36;100.00
44765;BME280;30484;52.382;5.260;2022-09-23T13:10:44;101561.66;;;24.59;100.00
44765;BME280;30484;52.382;5.260;2022-09-23T13:13:23;101561.97;;;23.32;100.00
44765;BME280;30484;52.382;5.260;2022-09-23T13:15:55;101564.94;;;23.98;100.00
44765;BME280;30484;52.382;5.260;2022-09-23T13:18:56;101557.03;;;24.32;100.00
44765;BME280;30484;52.382;5.260;2022-09-23T13:22:00;101564.28;;;24.23;100.00
44765;BME280;30484;52.382;5.260;2022-09-23T13:24:41;101561.09;;;24.28;100.00
44765;BME280;30484;52.382;5.260;2022-09-23T13:27:35;101547.56;;;23.99;100.00
44765;BME280;30484;52.382;5.260;2022-09-23T13:30:16;101550.28;;;23.99;100.00
44765;BME280;30484;52.382;5.260;2022-09-23T13:33:05;101544.25;;;23.95;100.00
44765;BME280;30484;52.382;5.260;2022-09-23T13:35:47;101534.34;;;24.32;100.00
44765;BME280;30484;52.382;5.260;2022-09-23T13:38:20;101535.78;;;24.63;100.00
44765;BME280;30484;52.382;5.260;2022-09-23T13:40:58;101530.19;;;24.55;100.00
44765;BME280;30484;52.382;5.260;2022-09-23T13:43:35;101537.75;;;24.06;100.00
44765;BME280;30484;52.382;5.260;2022-09-23T13:46:11;101534.94;;;24.25;100.00
44765;BME280;30484;52.382;5.260;2022-09-23T13:48:47;101536.34;;;24.29;100.00